Portada
METAR-TAF:

METAR-TAF

Aeropuertos :

Riga, Letonia

Aeropuerto Internacional de Riga

latitud: 56-55N, longitud: 023-58E, altitud: 10 m

Observación

El informe se hizo hace 17 minutos, a las 22:20 UTC
Viento calma
Temperatura 10°C
Humedad 100%
Presión 1019 hPa
Visibilidad 10 km o más
Niebla baja

METAR: EVRA 222220Z 00000KT 9999 MIFG NSC 10/10 Q1019 NOSIG

Hora: 01:37 (22:37 UTC)

Pronóstico

El informe se hizo hace 2 horas y 37 minutos, a las 20:00 UTC
Pronóstico válido del 22 a las 21 UTC al 23 a las 21 UTC
Viento 2 kt con dirección variable
Visibilidad 10 km o más
Nubes dispersas a una altura de 2500 ft
Temporalmente
del 22 a las 21 UTC al 23 a las 04 UTC
Visibilidad: 0700 m
Nubes dispersas a una altura de 200 ft
niebla
Evolucionando progresivamente
del 23 a las 06 UTC al 23 a las 08 UTC
Viento 7 kt del norte-noroeste

TAF: EVRA 222000Z 2221/2321 VRB02KT 9999 SCT025 TEMPO 2221/2304 0700 FG SCT002 BECMG 2306/2308 34007KT

Observaciones y pronósticos meteorológicos de más de 4000 aeropuertos (mensajes METAR y TAF).

Los puntos amarillos y rojos representan las estaciones disponibles.

Ponga el ratón en el punto deseado para ver el nombre de la estación.

Haga clic para ver las observaciones y los pronósticos meteorológicos.

Para cambiar el mapa : haga clic en los botones verdes con una cruz de color negro para hacer un zoom, en el botón verde con un guión para alejar o en las flechas verdes para mapas adyacentes.


METAR-TAF: